sensor_id;sensor_type;location;lat;lon;timestamp;pressure;altitude;pressure_sealevel;temperature;humidity
70323;BME280;57735;56.264;43.898;2023-05-14T00:02:14;101087.25;;;10.36;68.46
70323;BME280;57735;56.264;43.898;2023-05-14T00:04:46;101095.22;;;10.36;68.43
70323;BME280;57735;56.264;43.898;2023-05-14T00:07:16;101092.97;;;10.31;68.73
70323;BME280;57735;56.264;43.898;2023-05-14T00:09:47;101096.72;;;10.29;68.54
70323;BME280;57735;56.264;43.898;2023-05-14T00:12:18;101104.00;;;10.27;68.98
70323;BME280;57735;56.264;43.898;2023-05-14T00:14:52;101099.09;;;10.22;69.07
70323;BME280;57735;56.264;43.898;2023-05-14T00:17:22;101102.03;;;10.19;69.14
70323;BME280;57735;56.264;43.898;2023-05-14T00:19:56;101108.44;;;10.17;68.91
70323;BME280;57735;56.264;43.898;2023-05-14T00:22:26;101103.38;;;10.13;68.96
70323;BME280;57735;56.264;43.898;2023-05-14T00:24:57;101109.81;;;10.11;69.40
70323;BME280;57735;56.264;43.898;2023-05-14T00:27:28;101110.06;;;10.08;69.49
70323;BME280;57735;56.264;43.898;2023-05-14T00:30:02;101111.03;;;10.07;69.56
70323;BME280;57735;56.264;43.898;2023-05-14T00:32:35;101111.16;;;10.05;69.76
70323;BME280;57735;56.264;43.898;2023-05-14T00:35:08;101102.50;;;10.03;69.56
70323;BME280;57735;56.264;43.898;2023-05-14T00:37:39;101106.38;;;9.99;69.87
70323;BME280;57735;56.264;43.898;2023-05-14T00:40:10;101109.19;;;9.98;69.75
70323;BME280;57735;56.264;43.898;2023-05-14T00:42:42;101111.13;;;9.96;69.83
70323;BME280;57735;56.264;43.898;2023-05-14T00:45:13;101110.53;;;9.92;70.31
70323;BME280;57735;56.264;43.898;2023-05-14T00:47:47;101114.19;;;9.91;70.26
70323;BME280;57735;56.264;43.898;2023-05-14T00:50:18;101115.88;;;9.92;70.23
70323;BME280;57735;56.264;43.898;2023-05-14T00:52:49;101119.50;;;9.91;70.22
70323;BME280;57735;56.264;43.898;2023-05-14T00:55:22;101116.84;;;9.91;70.37
70323;BME280;57735;56.264;43.898;2023-05-14T00:57:57;101121.44;;;9.89;70.45
70323;BME280;57735;56.264;43.898;2023-05-14T01:00:28;101125.25;;;9.87;70.38
70323;BME280;57735;56.264;43.898;2023-05-14T01:02:59;101127.06;;;9.86;70.49
70323;BME280;57735;56.264;43.898;2023-05-14T01:09:04;101131.66;;;9.84;70.37
70323;BME280;57735;56.264;43.898;2023-05-14T01:14:52;101137.00;;;9.84;70.65
70323;BME280;57735;56.264;43.898;2023-05-14T01:17:27;101155.75;;;9.83;70.57
70323;BME280;57735;56.264;43.898;2023-05-14T01:19:58;101147.06;;;9.80;70.98
70323;BME280;57735;56.264;43.898;2023-05-14T01:22:30;101144.41;;;9.80;70.86
70323;BME280;57735;56.264;43.898;2023-05-14T01:25:00;101153.22;;;9.81;70.51
70323;BME280;57735;56.264;43.898;2023-05-14T01:30:20;101158.56;;;9.81;70.88
70323;BME280;57735;56.264;43.898;2023-05-14T01:32:55;101156.72;;;9.82;70.76
70323;BME280;57735;56.264;43.898;2023-05-14T01:35:32;101162.06;;;9.82;71.23
70323;BME280;57735;56.264;43.898;2023-05-14T01:38:06;101154.66;;;9.85;71.03
70323;BME280;57735;56.264;43.898;2023-05-14T01:40:39;101153.81;;;9.85;71.18
70323;BME280;57735;56.264;43.898;2023-05-14T01:43:11;101161.69;;;9.86;70.99
70323;BME280;57735;56.264;43.898;2023-05-14T01:45:42;101158.03;;;9.87;71.03
70323;BME280;57735;56.264;43.898;2023-05-14T01:48:13;101161.56;;;9.88;70.77
70323;BME280;57735;56.264;43.898;2023-05-14T01:50:44;101170.09;;;9.91;70.61
70323;BME280;57735;56.264;43.898;2023-05-14T01:53:15;101163.81;;;9.92;70.65
70323;BME280;57735;56.264;43.898;2023-05-14T01:55:46;101163.53;;;9.95;70.45
70323;BME280;57735;56.264;43.898;2023-05-14T01:58:16;101161.59;;;9.97;70.36
70323;BME280;57735;56.264;43.898;2023-05-14T02:00:47;101160.50;;;10.00;70.27
70323;BME280;57735;56.264;43.898;2023-05-14T02:03:18;101166.41;;;10.03;70.15
70323;BME280;57735;56.264;43.898;2023-05-14T02:05:49;101167.81;;;10.07;70.18
70323;BME280;57735;56.264;43.898;2023-05-14T02:08:20;101169.25;;;10.11;70.01
70323;BME280;57735;56.264;43.898;2023-05-14T02:10:51;101171.66;;;10.14;69.89
70323;BME280;57735;56.264;43.898;2023-05-14T02:13:21;101164.25;;;10.18;69.97
70323;BME280;57735;56.264;43.898;2023-05-14T02:15:55;101170.22;;;10.22;69.81
70323;BME280;57735;56.264;43.898;2023-05-14T02:18:27;101173.56;;;10.24;69.83
70323;BME280;57735;56.264;43.898;2023-05-14T02:20:58;101167.25;;;10.25;69.53
70323;BME280;57735;56.264;43.898;2023-05-14T02:23:29;101168.81;;;10.27;69.61
70323;BME280;57735;56.264;43.898;2023-05-14T02:26:00;101168.56;;;10.30;69.21
70323;BME280;57735;56.264;43.898;2023-05-14T02:28:33;101172.06;;;10.31;69.28
70323;BME280;57735;56.264;43.898;2023-05-14T02:31:06;101176.16;;;10.35;69.43
70323;BME280;57735;56.264;43.898;2023-05-14T02:33:37;101181.22;;;10.38;69.10
70323;BME280;57735;56.264;43.898;2023-05-14T02:36:07;101180.94;;;10.41;69.13
70323;BME280;57735;56.264;43.898;2023-05-14T02:38:38;101176.06;;;10.46;69.07
70323;BME280;57735;56.264;43.898;2023-05-14T02:41:12;101185.34;;;10.52;68.82
70323;BME280;57735;56.264;43.898;2023-05-14T02:43:42;101189.47;;;10.56;68.70
70323;BME280;57735;56.264;43.898;2023-05-14T02:46:13;101192.81;;;10.58;68.58
70323;BME280;57735;56.264;43.898;2023-05-14T03:00:27;101190.28;;;10.87;67.65
70323;BME280;57735;56.264;43.898;2023-05-14T03:03:01;101197.16;;;10.89;67.15
70323;BME280;57735;56.264;43.898;2023-05-14T03:05:31;101198.69;;;10.92;66.81
70323;BME280;57735;56.264;43.898;2023-05-14T03:08:02;101194.91;;;10.94;66.82
70323;BME280;57735;56.264;43.898;2023-05-14T03:10:33;101200.25;;;10.94;66.40
70323;BME280;57735;56.264;43.898;2023-05-14T03:13:04;101202.50;;;10.99;66.40
70323;BME280;57735;56.264;43.898;2023-05-14T03:15:34;101206.47;;;11.04;66.71
70323;BME280;57735;56.264;43.898;2023-05-14T03:18:05;101202.53;;;11.08;66.06
70323;BME280;57735;56.264;43.898;2023-05-14T03:20:36;101213.78;;;11.12;65.73
70323;BME280;57735;56.264;43.898;2023-05-14T03:23:07;101208.63;;;11.20;65.50
70323;BME280;57735;56.264;43.898;2023-05-14T03:25:37;101210.56;;;11.18;64.75
70323;BME280;57735;56.264;43.898;2023-05-14T03:28:08;101221.09;;;11.19;64.80
70323;BME280;57735;56.264;43.898;2023-05-14T03:30:39;101217.59;;;11.19;64.63
70323;BME280;57735;56.264;43.898;2023-05-14T03:33:12;101214.94;;;11.19;64.63
70323;BME280;57735;56.264;43.898;2023-05-14T03:35:43;101214.09;;;11.28;64.68
70323;BME280;57735;56.264;43.898;2023-05-14T03:38:19;101225.22;;;11.43;64.11
70323;BME280;57735;56.264;43.898;2023-05-14T03:40:50;101224.25;;;11.63;63.48
70323;BME280;57735;56.264;43.898;2023-05-14T03:43:21;101220.06;;;11.80;62.97
70323;BME280;57735;56.264;43.898;2023-05-14T03:45:54;101226.94;;;11.92;62.78
70323;BME280;57735;56.264;43.898;2023-05-14T03:48:24;101229.03;;;12.08;62.58
70323;BME280;57735;56.264;43.898;2023-05-14T03:50:55;101241.44;;;12.18;61.91
70323;BME280;57735;56.264;43.898;2023-05-14T03:53:28;101237.88;;;12.28;61.55
70323;BME280;57735;56.264;43.898;2023-05-14T03:55:59;101235.63;;;12.33;61.65
70323;BME280;57735;56.264;43.898;2023-05-14T03:58:32;101238.59;;;12.39;61.07
70323;BME280;57735;56.264;43.898;2023-05-14T04:01:03;101234.94;;;12.31;60.76
70323;BME280;57735;56.264;43.898;2023-05-14T04:03:33;101233.13;;;12.21;60.83
70323;BME280;57735;56.264;43.898;2023-05-14T04:06:04;101234.69;;;12.14;60.85
70323;BME280;57735;56.264;43.898;2023-05-14T04:08:35;101242.97;;;12.21;61.05
70323;BME280;57735;56.264;43.898;2023-05-14T04:11:06;101239.16;;;12.23;60.92
70323;BME280;57735;56.264;43.898;2023-05-14T04:13:37;101242.25;;;12.38;60.57
70323;BME280;57735;56.264;43.898;2023-05-14T04:16:08;101244.59;;;12.51;59.77
70323;BME280;57735;56.264;43.898;2023-05-14T04:18:39;101245.88;;;12.47;59.65
70323;BME280;57735;56.264;43.898;2023-05-14T04:21:12;101244.47;;;12.43;59.15
70323;BME280;57735;56.264;43.898;2023-05-14T04:23:43;101243.34;;;12.45;59.16
70323;BME280;57735;56.264;43.898;2023-05-14T04:26:13;101244.19;;;12.46;59.32
70323;BME280;57735;56.264;43.898;2023-05-14T04:28:47;101237.38;;;12.61;58.92
70323;BME280;57735;56.264;43.898;2023-05-14T04:31:21;101233.06;;;12.87;58.39
70323;BME280;57735;56.264;43.898;2023-05-14T04:33:51;101246.75;;;13.12;58.03
70323;BME280;57735;56.264;43.898;2023-05-14T04:36:22;101237.25;;;13.27;57.62
70323;BME280;57735;56.264;43.898;2023-05-14T04:38:53;101238.94;;;13.28;57.01
70323;BME280;57735;56.264;43.898;2023-05-14T04:41:26;101238.56;;;13.23;57.24
70323;BME280;57735;56.264;43.898;2023-05-14T04:43:59;101238.44;;;13.15;57.43
70323;BME280;57735;56.264;43.898;2023-05-14T04:46:33;101239.06;;;13.26;57.18
70323;BME280;57735;56.264;43.898;2023-05-14T04:49:04;101240.47;;;13.31;57.53
70323;BME280;57735;56.264;43.898;2023-05-14T04:51:35;101250.81;;;13.43;56.96
70323;BME280;57735;56.264;43.898;2023-05-14T04:54:05;101246.84;;;13.47;57.30
70323;BME280;57735;56.264;43.898;2023-05-14T04:56:36;101247.09;;;13.54;57.16
70323;BME280;57735;56.264;43.898;2023-05-14T04:59:09;101250.53;;;13.46;56.29
70323;BME280;57735;56.264;43.898;2023-05-14T05:01:40;101254.75;;;13.49;57.35
70323;BME280;57735;56.264;43.898;2023-05-14T05:04:11;101255.44;;;13.51;57.05
70323;BME280;57735;56.264;43.898;2023-05-14T05:06:45;101253.53;;;13.61;56.30
70323;BME280;57735;56.264;43.898;2023-05-14T05:09:16;101256.31;;;13.87;55.62
70323;BME280;57735;56.264;43.898;2023-05-14T05:11:47;101258.28;;;14.03;55.04
70323;BME280;57735;56.264;43.898;2023-05-14T05:14:18;101253.97;;;14.10;54.92
70323;BME280;57735;56.264;43.898;2023-05-14T05:16:50;101264.06;;;14.33;55.23
70323;BME280;57735;56.264;43.898;2023-05-14T05:19:20;101258.31;;;14.46;54.57
70323;BME280;57735;56.264;43.898;2023-05-14T05:21:51;101258.53;;;14.53;53.91
70323;BME280;57735;56.264;43.898;2023-05-14T05:24:22;101254.56;;;14.65;53.73
70323;BME280;57735;56.264;43.898;2023-05-14T05:26:53;101252.97;;;14.80;51.97
70323;BME280;57735;56.264;43.898;2023-05-14T05:29:25;101253.72;;;14.90;52.02
70323;BME280;57735;56.264;43.898;2023-05-14T05:31:56;101254.75;;;14.97;52.09
70323;BME280;57735;56.264;43.898;2023-05-14T05:34:26;101247.59;;;15.06;51.43
70323;BME280;57735;56.264;43.898;2023-05-14T05:37:00;101246.75;;;15.06;51.09
70323;BME280;57735;56.264;43.898;2023-05-14T05:39:31;101240.88;;;15.10;51.42
70323;BME280;57735;56.264;43.898;2023-05-14T05:42:04;101250.34;;;15.22;51.21
70323;BME280;57735;56.264;43.898;2023-05-14T05:44:35;101240.66;;;15.38;50.99
70323;BME280;57735;56.264;43.898;2023-05-14T05:47:06;101245.53;;;15.50;50.11
70323;BME280;57735;56.264;43.898;2023-05-14T05:49:36;101253.28;;;15.53;50.10
70323;BME280;57735;56.264;43.898;2023-05-14T05:52:07;101252.31;;;15.62;50.13
70323;BME280;57735;56.264;43.898;2023-05-14T05:54:38;101250.66;;;15.86;49.19
70323;BME280;57735;56.264;43.898;2023-05-14T05:57:09;101242.78;;;16.09;48.83
70323;BME280;57735;56.264;43.898;2023-05-14T05:59:40;101243.28;;;16.04;47.93
70323;BME280;57735;56.264;43.898;2023-05-14T06:02:10;101252.16;;;15.80;48.52
70323;BME280;57735;56.264;43.898;2023-05-14T06:04:41;101252.81;;;15.66;48.94
70323;BME280;57735;56.264;43.898;2023-05-14T06:07:12;101250.03;;;15.42;49.24
70323;BME280;57735;56.264;43.898;2023-05-14T06:09:43;101256.06;;;15.35;49.34
70323;BME280;57735;56.264;43.898;2023-05-14T06:12:13;101259.09;;;15.32;49.76
70323;BME280;57735;56.264;43.898;2023-05-14T06:14:48;101266.16;;;15.33;50.05
70323;BME280;57735;56.264;43.898;2023-05-14T06:17:27;101264.31;;;15.42;49.85
70323;BME280;57735;56.264;43.898;2023-05-14T06:19:58;101256.44;;;15.49;49.47
70323;BME280;57735;56.264;43.898;2023-05-14T06:22:29;101258.38;;;15.64;49.37
70323;BME280;57735;56.264;43.898;2023-05-14T06:24:59;101258.06;;;15.84;48.82
70323;BME280;57735;56.264;43.898;2023-05-14T06:27:30;101252.69;;;16.00;48.81
70323;BME280;57735;56.264;43.898;2023-05-14T06:30:04;101248.50;;;16.14;47.84
70323;BME280;57735;56.264;43.898;2023-05-14T06:32:35;101249.34;;;16.14;48.06
70323;BME280;57735;56.264;43.898;2023-05-14T06:35:07;101253.38;;;16.18;47.73
70323;BME280;57735;56.264;43.898;2023-05-14T06:37:40;101249.50;;;16.04;47.24
70323;BME280;57735;56.264;43.898;2023-05-14T06:40:14;101256.41;;;16.07;47.43
70323;BME280;57735;56.264;43.898;2023-05-14T06:42:45;101247.34;;;16.08;47.03
70323;BME280;57735;56.264;43.898;2023-05-14T06:45:15;101247.00;;;16.03;47.18
70323;BME280;57735;56.264;43.898;2023-05-14T06:47:46;101244.31;;;16.03;47.17
70323;BME280;57735;56.264;43.898;2023-05-14T06:50:17;101242.78;;;16.09;47.55
70323;BME280;57735;56.264;43.898;2023-05-14T06:52:48;101247.66;;;16.13;46.72
70323;BME280;57735;56.264;43.898;2023-05-14T06:55:19;101247.97;;;16.26;46.98
70323;BME280;57735;56.264;43.898;2023-05-14T06:57:51;101243.41;;;16.43;46.48
70323;BME280;57735;56.264;43.898;2023-05-14T07:00:22;101245.59;;;16.64;46.69
70323;BME280;57735;56.264;43.898;2023-05-14T07:02:52;101247.06;;;16.83;45.60
70323;BME280;57735;56.264;43.898;2023-05-14T07:05:26;101251.56;;;16.98;45.12
70323;BME280;57735;56.264;43.898;2023-05-14T07:07:57;101256.88;;;17.23;44.74
70323;BME280;57735;56.264;43.898;2023-05-14T07:10:27;101256.47;;;17.34;44.64
70323;BME280;57735;56.264;43.898;2023-05-14T07:13:00;101259.38;;;17.55;44.67
70323;BME280;57735;56.264;43.898;2023-05-14T07:15:32;101256.97;;;17.68;43.82
70323;BME280;57735;56.264;43.898;2023-05-14T07:18:03;101262.25;;;17.85;43.53
70323;BME280;57735;56.264;43.898;2023-05-14T07:20:34;101261.91;;;17.88;43.00
70323;BME280;57735;56.264;43.898;2023-05-14T07:23:05;101254.47;;;17.90;42.75
70323;BME280;57735;56.264;43.898;2023-05-14T07:25:36;101252.19;;;18.01;43.55
70323;BME280;57735;56.264;43.898;2023-05-14T07:28:07;101272.09;;;18.00;43.05
70323;BME280;57735;56.264;43.898;2023-05-14T07:30:37;101266.31;;;17.81;43.20
70323;BME280;57735;56.264;43.898;2023-05-14T07:33:08;101268.31;;;17.56;43.47
70323;BME280;57735;56.264;43.898;2023-05-14T07:35:41;101269.94;;;17.34;43.79
70323;BME280;57735;56.264;43.898;2023-05-14T07:38:12;101274.84;;;17.30;44.08
70323;BME280;57735;56.264;43.898;2023-05-14T07:40:43;101269.53;;;17.45;43.93
70323;BME280;57735;56.264;43.898;2023-05-14T07:43:16;101271.28;;;17.61;44.42
70323;BME280;57735;56.264;43.898;2023-05-14T07:45:47;101268.13;;;17.57;43.12
70323;BME280;57735;56.264;43.898;2023-05-14T07:48:17;101270.81;;;17.65;42.80
70323;BME280;57735;56.264;43.898;2023-05-14T07:50:48;101276.88;;;17.67;42.07
70323;BME280;57735;56.264;43.898;2023-05-14T07:53:19;101273.50;;;17.65;42.79
70323;BME280;57735;56.264;43.898;2023-05-14T07:55:50;101275.19;;;17.66;42.96
70323;BME280;57735;56.264;43.898;2023-05-14T07:58:21;101274.16;;;17.67;43.40
70323;BME280;57735;56.264;43.898;2023-05-14T08:00:52;101278.75;;;17.59;43.27
70323;BME280;57735;56.264;43.898;2023-05-14T08:03:26;101289.78;;;17.41;43.50
70323;BME280;57735;56.264;43.898;2023-05-14T08:05:57;101289.47;;;17.36;44.02
70323;BME280;57735;56.264;43.898;2023-05-14T08:08:27;101281.38;;;17.36;44.22
70323;BME280;57735;56.264;43.898;2023-05-14T08:11:01;101285.53;;;17.47;43.67
70323;BME280;57735;56.264;43.898;2023-05-14T08:13:35;101278.28;;;17.47;42.55
70323;BME280;57735;56.264;43.898;2023-05-14T08:16:06;101287.88;;;17.50;42.66
70323;BME280;57735;56.264;43.898;2023-05-14T08:18:37;101291.06;;;17.53;42.63
70323;BME280;57735;56.264;43.898;2023-05-14T08:21:10;101277.25;;;17.56;42.93
70323;BME280;57735;56.264;43.898;2023-05-14T08:23:43;101283.47;;;17.57;42.65
70323;BME280;57735;56.264;43.898;2023-05-14T08:26:13;101294.13;;;17.50;42.57
70323;BME280;57735;56.264;43.898;2023-05-14T08:28:44;101298.34;;;17.44;42.57
70323;BME280;57735;56.264;43.898;2023-05-14T08:31:18;101287.97;;;17.33;42.34
70323;BME280;57735;56.264;43.898;2023-05-14T08:33:49;101279.19;;;17.39;42.41
70323;BME280;57735;56.264;43.898;2023-05-14T08:36:20;101290.91;;;17.55;42.64
70323;BME280;57735;56.264;43.898;2023-05-14T08:38:50;101275.38;;;17.57;42.12
70323;BME280;57735;56.264;43.898;2023-05-14T08:41:21;101272.88;;;17.55;42.55
70323;BME280;57735;56.264;43.898;2023-05-14T08:44:05;101277.16;;;17.41;42.39
70323;BME280;57735;56.264;43.898;2023-05-14T08:46:47;101284.78;;;17.30;42.82
70323;BME280;57735;56.264;43.898;2023-05-14T08:49:40;101288.66;;;17.27;42.87
70323;BME280;57735;56.264;43.898;2023-05-14T08:52:11;101285.94;;;17.27;43.65
70323;BME280;57735;56.264;43.898;2023-05-14T08:54:42;101280.09;;;17.24;43.44
70323;BME280;57735;56.264;43.898;2023-05-14T08:57:15;101279.03;;;17.33;43.21
70323;BME280;57735;56.264;43.898;2023-05-14T08:59:48;101282.53;;;17.41;42.94
70323;BME280;57735;56.264;43.898;2023-05-14T09:02:22;101295.81;;;17.43;42.96
70323;BME280;57735;56.264;43.898;2023-05-14T09:04:58;101278.94;;;17.49;43.32
70323;BME280;57735;56.264;43.898;2023-05-14T09:07:30;101281.97;;;17.54;42.64
70323;BME280;57735;56.264;43.898;2023-05-14T09:10:02;101279.59;;;17.59;43.26
70323;BME280;57735;56.264;43.898;2023-05-14T09:12:36;101286.81;;;17.67;43.15
70323;BME280;57735;56.264;43.898;2023-05-14T09:15:07;101281.16;;;17.76;43.35
70323;BME280;57735;56.264;43.898;2023-05-14T09:17:41;101283.69;;;17.78;42.64
70323;BME280;57735;56.264;43.898;2023-05-14T09:20:13;101288.88;;;17.88;43.19
70323;BME280;57735;56.264;43.898;2023-05-14T09:22:44;101285.09;;;17.97;43.14
70323;BME280;57735;56.264;43.898;2023-05-14T09:25:17;101282.69;;;18.02;42.89
70323;BME280;57735;56.264;43.898;2023-05-14T09:27:50;101288.03;;;18.10;42.59
70323;BME280;57735;56.264;43.898;2023-05-14T09:30:20;101284.50;;;18.09;42.15
70323;BME280;57735;56.264;43.898;2023-05-14T09:32:54;101283.53;;;18.02;41.82
70323;BME280;57735;56.264;43.898;2023-05-14T09:35:25;101282.34;;;18.05;42.13
70323;BME280;57735;56.264;43.898;2023-05-14T09:37:56;101292.78;;;18.08;42.48
70323;BME280;57735;56.264;43.898;2023-05-14T09:40:27;101284.03;;;18.06;41.52
70323;BME280;57735;56.264;43.898;2023-05-14T09:42:57;101285.53;;;18.08;41.47
70323;BME280;57735;56.264;43.898;2023-05-14T09:45:33;101288.75;;;18.04;41.62
70323;BME280;57735;56.264;43.898;2023-05-14T09:48:04;101287.06;;;18.03;41.87
70323;BME280;57735;56.264;43.898;2023-05-14T09:50:45;101284.69;;;18.08;41.66
70323;BME280;57735;56.264;43.898;2023-05-14T09:53:16;101274.47;;;17.95;41.61
70323;BME280;57735;56.264;43.898;2023-05-14T09:55:52;101280.78;;;17.88;42.21
70323;BME280;57735;56.264;43.898;2023-05-14T09:58:23;101278.44;;;18.07;42.02
70323;BME280;57735;56.264;43.898;2023-05-14T10:00:54;101277.34;;;18.39;41.35
70323;BME280;57735;56.264;43.898;2023-05-14T10:03:29;101281.09;;;18.53;40.67
70323;BME280;57735;56.264;43.898;2023-05-14T10:06:06;101275.84;;;18.60;40.44
70323;BME280;57735;56.264;43.898;2023-05-14T10:08:40;101275.13;;;18.58;39.88
70323;BME280;57735;56.264;43.898;2023-05-14T10:11:18;101284.81;;;18.52;40.14
70323;BME280;57735;56.264;43.898;2023-05-14T10:14:02;101278.03;;;18.56;40.79
70323;BME280;57735;56.264;43.898;2023-05-14T10:16:41;101286.78;;;18.58;40.86
70323;BME280;57735;56.264;43.898;2023-05-14T10:19:14;101274.47;;;18.56;41.59
70323;BME280;57735;56.264;43.898;2023-05-14T10:21:55;101277.22;;;18.70;41.18
70323;BME280;57735;56.264;43.898;2023-05-14T10:24:27;101271.66;;;19.01;40.24
70323;BME280;57735;56.264;43.898;2023-05-14T10:27:00;101280.13;;;18.83;39.89
70323;BME280;57735;56.264;43.898;2023-05-14T10:29:35;101270.03;;;18.77;39.73
70323;BME280;57735;56.264;43.898;2023-05-14T10:32:07;101269.84;;;18.64;39.34
70323;BME280;57735;56.264;43.898;2023-05-14T10:34:42;101274.91;;;18.44;40.07
70323;BME280;57735;56.264;43.898;2023-05-14T10:37:18;101275.06;;;18.28;40.39
70323;BME280;57735;56.264;43.898;2023-05-14T10:39:52;101272.91;;;18.01;39.10
70323;BME280;57735;56.264;43.898;2023-05-14T10:42:34;101273.09;;;18.22;39.51
70323;BME280;57735;56.264;43.898;2023-05-14T10:45:12;101272.22;;;18.44;39.49
70323;BME280;57735;56.264;43.898;2023-05-14T10:47:46;101270.75;;;18.57;39.19
70323;BME280;57735;56.264;43.898;2023-05-14T10:50:17;101278.88;;;18.57;38.93
70323;BME280;57735;56.264;43.898;2023-05-14T10:52:48;101284.09;;;18.58;39.35
70323;BME280;57735;56.264;43.898;2023-05-14T10:55:19;101284.97;;;18.51;39.38
70323;BME280;57735;56.264;43.898;2023-05-14T10:57:51;101284.16;;;18.27;40.27
70323;BME280;57735;56.264;43.898;2023-05-14T11:00:24;101289.06;;;18.09;41.13
70323;BME280;57735;56.264;43.898;2023-05-14T11:02:57;101277.53;;;17.61;41.83
70323;BME280;57735;56.264;43.898;2023-05-14T11:05:28;101283.47;;;17.26;42.54
70323;BME280;57735;56.264;43.898;2023-05-14T11:08:02;101293.31;;;17.02;43.41
70323;BME280;57735;56.264;43.898;2023-05-14T11:10:36;101291.16;;;16.90;43.50
70323;BME280;57735;56.264;43.898;2023-05-14T11:13:09;101292.19;;;16.81;44.10
70323;BME280;57735;56.264;43.898;2023-05-14T11:15:42;101288.13;;;16.77;44.05
70323;BME280;57735;56.264;43.898;2023-05-14T11:18:29;101295.72;;;16.81;43.99
70323;BME280;57735;56.264;43.898;2023-05-14T11:21:00;101296.88;;;16.79;44.40
70323;BME280;57735;56.264;43.898;2023-05-14T11:23:33;101304.13;;;16.78;44.75
70323;BME280;57735;56.264;43.898;2023-05-14T11:26:04;101296.09;;;16.70;45.44
70323;BME280;57735;56.264;43.898;2023-05-14T11:28:35;101299.75;;;16.61;45.55
70323;BME280;57735;56.264;43.898;2023-05-14T11:31:06;101300.13;;;16.58;45.83
70323;BME280;57735;56.264;43.898;2023-05-14T11:33:38;101304.50;;;16.67;47.32
70323;BME280;57735;56.264;43.898;2023-05-14T11:36:10;101305.00;;;16.70;46.69
70323;BME280;57735;56.264;43.898;2023-05-14T11:38:48;101300.41;;;16.79;46.64
70323;BME280;57735;56.264;43.898;2023-05-14T11:41:19;101297.00;;;17.01;47.50
70323;BME280;57735;56.264;43.898;2023-05-14T11:43:52;101298.28;;;17.22;46.64
70323;BME280;57735;56.264;43.898;2023-05-14T11:46:23;101300.25;;;17.36;46.46
70323;BME280;57735;56.264;43.898;2023-05-14T11:48:55;101297.03;;;17.40;45.90
70323;BME280;57735;56.264;43.898;2023-05-14T11:51:26;101290.06;;;17.54;46.36
70323;BME280;57735;56.264;43.898;2023-05-14T11:53:56;101295.78;;;17.59;45.62
70323;BME280;57735;56.264;43.898;2023-05-14T11:56:32;101289.25;;;17.45;46.09
70323;BME280;57735;56.264;43.898;2023-05-14T11:59:03;101297.06;;;17.32;46.55
70323;BME280;57735;56.264;43.898;2023-05-14T12:01:40;101296.00;;;16.94;46.70
70323;BME280;57735;56.264;43.898;2023-05-14T12:04:12;101302.31;;;16.70;48.53
70323;BME280;57735;56.264;43.898;2023-05-14T12:06:43;101305.97;;;16.45;50.18
70323;BME280;57735;56.264;43.898;2023-05-14T12:09:17;101315.75;;;16.22;51.51
70323;BME280;57735;56.264;43.898;2023-05-14T12:11:49;101323.09;;;15.95;51.98
70323;BME280;57735;56.264;43.898;2023-05-14T12:14:22;101320.06;;;15.74;53.73
70323;BME280;57735;56.264;43.898;2023-05-14T12:16:56;101314.56;;;15.50;54.59
70323;BME280;57735;56.264;43.898;2023-05-14T12:19:29;101317.34;;;15.32;55.05
70323;BME280;57735;56.264;43.898;2023-05-14T12:22:00;101316.28;;;15.25;55.63
70323;BME280;57735;56.264;43.898;2023-05-14T12:24:34;101317.66;;;15.21;56.41
70323;BME280;57735;56.264;43.898;2023-05-14T12:27:05;101321.16;;;15.21;56.50
70323;BME280;57735;56.264;43.898;2023-05-14T12:29:37;101314.63;;;15.24;56.61
70323;BME280;57735;56.264;43.898;2023-05-14T12:32:10;101306.59;;;15.32;55.89
70323;BME280;57735;56.264;43.898;2023-05-14T12:34:43;101311.19;;;15.48;55.50
70323;BME280;57735;56.264;43.898;2023-05-14T12:37:14;101308.28;;;15.67;54.21
70323;BME280;57735;56.264;43.898;2023-05-14T12:39:45;101304.97;;;15.89;52.98
70323;BME280;57735;56.264;43.898;2023-05-14T12:42:16;101307.34;;;16.17;52.96
70323;BME280;57735;56.264;43.898;2023-05-14T12:44:46;101305.50;;;16.42;52.52
70323;BME280;57735;56.264;43.898;2023-05-14T12:47:20;101301.97;;;16.65;50.66
70323;BME280;57735;56.264;43.898;2023-05-14T12:49:50;101298.88;;;16.93;50.83
70323;BME280;57735;56.264;43.898;2023-05-14T12:52:21;101296.97;;;17.18;50.25
70323;BME280;57735;56.264;43.898;2023-05-14T12:54:52;101294.72;;;17.68;48.62
70323;BME280;57735;56.264;43.898;2023-05-14T12:57:25;101293.13;;;18.05;47.73
70323;BME280;57735;56.264;43.898;2023-05-14T12:59:57;101294.75;;;19.18;44.46
70323;BME280;57735;56.264;43.898;2023-05-14T13:02:30;101296.97;;;18.71;43.45
70323;BME280;57735;56.264;43.898;2023-05-14T13:05:01;101292.72;;;18.54;44.38
70323;BME280;57735;56.264;43.898;2023-05-14T13:07:34;101296.88;;;18.94;42.80
70323;BME280;57735;56.264;43.898;2023-05-14T13:10:05;101296.06;;;18.93;42.41
70323;BME280;57735;56.264;43.898;2023-05-14T13:12:36;101290.69;;;18.56;43.35
70323;BME280;57735;56.264;43.898;2023-05-14T13:15:08;101294.59;;;18.53;43.60
70323;BME280;57735;56.264;43.898;2023-05-14T13:17:39;101297.47;;;18.52;43.84
70323;BME280;57735;56.264;43.898;2023-05-14T13:20:10;101285.28;;;18.18;44.36
70323;BME280;57735;56.264;43.898;2023-05-14T13:22:41;101293.00;;;17.75;45.17
70323;BME280;57735;56.264;43.898;2023-05-14T13:25:12;101288.66;;;17.27;44.28
70323;BME280;57735;56.264;43.898;2023-05-14T13:27:43;101295.66;;;16.97;45.47